Time;durP1;ratioP1;P1;durP2;ratioP2;P2;SDS_P1;SDS_P2;PMS_P1;PMS_P2;Temp;Humidity;BMP_temperature;BMP_pressure;BME280_temperature;BME280_humidity;BME280_pressure;Samples;Min_cycle;Max_cycle;Signal;HPM_P1;HPM_P2
2022/12/12 00:01:58;;;;;;;;;;;;;;;18.36;56.44;100186.75;2227823;79;49556;-72
2022/12/12 00:05:00;;;;;;;;;;;;;;;18.32;56.40;100185.50;2255249;79;49940;-71
2022/12/12 00:08:01;;;;;;;;;;;;;;;18.28;56.49;100170.82;2242845;79;50269;-72
2022/12/12 00:11:03;;;;;;;;;;;;;;;18.25;56.61;100153.29;2255471;79;50771;-70
2022/12/12 00:14:05;;;;;;;;;;;;;;;18.20;56.64;100137.48;2227861;79;49543;-70
2022/12/12 00:17:07;;;;;;;;;;;;;;;18.17;56.70;100135.20;2255084;79;50194;-69
2022/12/12 00:20:08;;;;;;;;;;;;;;;18.12;56.87;100142.47;2198014;79;50597;-72
2022/12/12 00:23:10;;;;;;;;;;;;;;;18.16;57.01;100138.88;2195415;79;50262;-70
2022/12/12 00:26:13;;;;;;;;;;;;;;;18.22;56.82;100146.98;2217123;79;51715;-72
2022/12/12 00:29:15;;;;;;;;;;;;;;;18.28;56.96;100158.77;2228289;79;50808;-70
2022/12/12 00:32:16;;;;;;;;;;;;;;;18.35;56.69;100158.32;2235686;79;50256;-71
2022/12/12 00:35:18;;;;;;;;;;;;;;;18.40;56.57;100166.61;2215048;79;50445;-71
2022/12/12 00:38:20;;;;;;;;;;;;;;;18.45;56.41;100161.50;2208938;79;50151;-73
2022/12/12 00:41:21;;;;;;;;;;;;;;;18.42;56.42;100151.17;2215786;79;51243;-71
2022/12/12 00:44:23;;;;;;;;;;;;;;;18.39;56.47;100158.23;2240830;79;50656;-71
2022/12/12 00:47:24;;;;;;;;;;;;;;;18.36;56.46;100147.91;2237217;79;51520;-72
2022/12/12 00:50:26;;;;;;;;;;;;;;;18.31;56.51;100147.66;2205336;79;52394;-71
2022/12/12 00:53:28;;;;;;;;;;;;;;;18.27;56.58;100151.25;2234979;79;51521;-71
2022/12/12 00:56:30;;;;;;;;;;;;;;;18.22;56.66;100150.18;2236823;79;51427;-72
2022/12/12 00:59:32;;;;;;;;;;;;;;;18.16;56.68;100159.81;2194247;80;50352;-72
2022/12/12 01:02:34;;;;;;;;;;;;;;;18.11;56.83;100165.41;2192442;80;52065;-71
2022/12/12 01:05:35;;;;;;;;;;;;;;;18.09;56.98;100168.30;2218679;79;51244;-71
2022/12/12 01:08:38;;;;;;;;;;;;;;;18.16;56.88;100165.17;2238901;79;51538;-71
2022/12/12 01:11:39;;;;;;;;;;;;;;;18.25;56.78;100169.36;2255827;79;51520;-72
2022/12/12 01:14:41;;;;;;;;;;;;;;;18.32;56.59;100172.63;2212293;80;51082;-71
2022/12/12 01:17:42;;;;;;;;;;;;;;;18.35;56.63;100170.38;2231089;79;50637;-72
2022/12/12 01:20:44;;;;;;;;;;;;;;;18.39;56.48;100181.00;2191743;79;51097;-72
2022/12/12 01:23:46;;;;;;;;;;;;;;;18.38;56.28;100182.03;2239733;77;50636;-71
2022/12/12 01:26:47;;;;;;;;;;;;;;;18.35;56.16;100187.78;2197623;79;52114;-73
2022/12/12 01:29:49;;;;;;;;;;;;;;;18.33;56.11;100184.98;2240142;79;50354;-72
2022/12/12 01:32:51;;;;;;;;;;;;;;;18.26;56.20;100183.08;2236435;79;50428;-72
2022/12/12 01:35:52;;;;;;;;;;;;;;;18.19;56.28;100181.37;2209795;79;50247;-72
2022/12/12 01:38:55;;;;;;;;;;;;;;;18.14;56.30;100181.11;2208964;79;51846;-72
2022/12/12 01:41:57;;;;;;;;;;;;;;;18.11;56.28;100180.98;2237892;79;51527;-71
2022/12/12 01:44:58;;;;;;;;;;;;;;;18.04;56.40;100180.91;2238799;79;51489;-71
2022/12/12 01:48:00;;;;;;;;;;;;;;;18.05;56.45;100189.24;2208403;79;50074;-72
2022/12/12 01:51:02;;;;;;;;;;;;;;;18.08;56.44;100186.70;2192773;79;51142;-71
2022/12/12 01:54:06;;;;;;;;;;;;;;;18.11;56.42;100182.80;2237846;79;52435;-70
2022/12/12 01:57:08;;;;;;;;;;;;;;;18.15;56.44;100185.44;2234447;77;50470;-71
2022/12/12 02:00:10;;;;;;;;;;;;;;;18.16;56.33;100195.11;2230336;79;51465;-70
2022/12/12 02:03:11;;;;;;;;;;;;;;;18.22;56.20;100197.87;2210086;79;52642;-71
2022/12/12 02:06:14;;;;;;;;;;;;;;;18.30;56.03;100185.38;2239385;79;51438;-71
2022/12/12 02:09:16;;;;;;;;;;;;;;;18.35;55.89;100174.91;2236295;79;50373;-71
2022/12/12 02:12:18;;;;;;;;;;;;;;;18.39;55.72;100161.43;2235176;79;50324;-71
2022/12/12 02:15:19;;;;;;;;;;;;;;;18.37;55.74;100158.11;2193223;79;52046;-71
2022/12/12 02:18:22;;;;;;;;;;;;;;;18.33;55.79;100168.91;2211958;79;50667;-71
2022/12/12 02:21:37;;;;;;;;;;;;;;;18.29;55.86;100163.13;2239638;79;50580;-72
2022/12/12 02:24:47;;;;;;;;;;;;;;;18.22;55.98;100172.94;2235630;79;50203;-71
2022/12/12 02:28:02;;;;;;;;;;;;;;;18.15;56.10;100179.56;2235610;79;50519;-71
2022/12/12 02:31:05;;;;;;;;;;;;;;;18.10;56.19;100172.61;2180525;79;50296;-72
2022/12/12 02:34:09;;;;;;;;;;;;;;;18.06;56.26;100172.18;2235181;77;50142;-72
2022/12/12 02:37:12;;;;;;;;;;;;;;;18.05;56.33;100184.41;2236374;79;50769;-72
2022/12/12 02:40:15;;;;;;;;;;;;;;;18.09;56.31;100179.00;2214131;79;51422;-71
2022/12/12 02:43:24;;;;;;;;;;;;;;;18.18;56.16;100185.05;2238443;79;50425;-71
2022/12/12 02:46:39;;;;;;;;;;;;;;;18.29;55.91;100188.56;2236632;79;49874;-71
2022/12/12 02:49:43;;;;;;;;;;;;;;;18.33;55.72;100190.34;2234080;79;51561;-71
2022/12/12 02:52:45;;;;;;;;;;;;;;;18.32;55.68;100193.53;2211278;79;53026;-72
2022/12/12 02:55:48;;;;;;;;;;;;;;;18.29;55.70;100192.59;2249713;79;50301;-72
2022/12/12 02:58:49;;;;;;;;;;;;;;;18.27;55.93;100186.58;2253873;79;51481;-72
2022/12/12 03:01:55;;;;;;;;;;;;;;;18.22;56.02;100183.66;2246516;78;51278;-72
2022/12/12 03:08:38;;;;;;;;;;;;;;;18.12;56.44;100192.00;2235548;79;22228;-73
2022/12/12 03:11:42;;;;;;;;;;;;;;;18.09;56.43;100196.41;2229767;79;51444;-72
2022/12/12 03:14:51;;;;;;;;;;;;;;;18.05;56.58;100193.78;2238602;79;51699;-71
2022/12/12 03:18:10;;;;;;;;;;;;;;;18.05;56.66;100189.24;2211114;79;55143;-72
2022/12/12 03:21:17;;;;;;;;;;;;;;;18.12;56.59;100192.52;2240536;79;51463;-73
2022/12/12 03:24:38;;;;;;;;;;;;;;;18.19;56.46;100194.23;2235656;79;51590;-73
2022/12/12 03:27:41;;;;;;;;;;;;;;;18.26;56.31;100202.31;2237392;79;50273;-73
2022/12/12 03:30:45;;;;;;;;;;;;;;;18.30;56.20;100204.13;2212831;79;49695;-74
2022/12/12 03:33:48;;;;;;;;;;;;;;;18.36;56.11;100204.16;2238823;78;50324;-74
2022/12/12 03:36:51;;;;;;;;;;;;;;;18.37;56.06;100204.50;2235435;79;50819;-74
2022/12/12 03:39:56;;;;;;;;;;;;;;;18.36;56.02;100200.14;2235580;79;50531;-72
2022/12/12 03:42:59;;;;;;;;;;;;;;;18.36;56.08;100196.13;2213170;79;52380;-73
2022/12/12 03:46:09;;;;;;;;;;;;;;;18.33;56.07;100198.38;2221939;79;51755;-72
2022/12/12 03:49:12;;;;;;;;;;;;;;;18.27;56.18;100194.10;2222501;79;50312;-73
2022/12/12 03:52:15;;;;;;;;;;;;;;;18.20;56.29;100191.05;2220412;79;50728;-73
2022/12/12 03:55:18;;;;;;;;;;;;;;;18.15;56.36;100194.29;2189096;79;51714;-72
2022/12/12 03:58:27;;;;;;;;;;;;;;;18.11;56.45;100197.53;2224988;79;50574;-73
2022/12/12 04:01:34;;;;;;;;;;;;;;;18.05;56.55;100195.11;2229866;79;50616;-72
2022/12/12 04:04:37;;;;;;;;;;;;;;;18.04;56.65;100194.81;2239672;79;22333;-73
2022/12/12 04:07:48;;;;;;;;;;;;;;;18.07;56.64;100193.08;2211819;79;52512;-71
2022/12/12 04:14:16;;;;;;;;;;;;;;;18.14;56.83;100195.84;2256287;79;22404;-72
2022/12/12 04:17:18;;;;;;;;;;;;;;;18.17;56.81;100202.14;2237815;79;50342;-73
2022/12/12 04:24:04;;;;;;;;;;;;;;;18.31;56.46;100197.22;2221536;80;22204;-73
2022/12/12 04:27:07;;;;;;;;;;;;;;;18.33;56.15;100196.52;2221214;79;51519;-73
2022/12/12 04:30:09;;;;;;;;;;;;;;;18.31;56.07;100195.88;2219500;79;51660;-73
2022/12/12 04:33:11;;;;;;;;;;;;;;;18.30;55.98;100191.55;2253573;79;51780;-73
2022/12/12 04:36:13;;;;;;;;;;;;;;;18.26;55.93;100187.59;2253029;79;51233;-73
2022/12/12 04:39:14;;;;;;;;;;;;;;;18.20;55.93;100181.67;2218974;79;52458;-72
2022/12/12 04:42:17;;;;;;;;;;;;;;;18.16;55.93;100184.41;2234780;79;51560;-72
2022/12/12 04:45:19;;;;;;;;;;;;;;;18.14;55.90;100190.48;2247260;79;50321;-73
2022/12/12 04:48:22;;;;;;;;;;;;;;;18.09;55.98;100194.24;2223105;79;51635;-73
2022/12/12 04:51:25;;;;;;;;;;;;;;;18.09;55.97;100196.92;2219748;79;51529;-73
2022/12/12 04:54:29;;;;;;;;;;;;;;;18.12;55.90;100190.66;2255338;79;50680;-72
2022/12/12 04:57:38;;;;;;;;;;;;;;;18.17;55.89;100192.77;2225405;79;51754;-72
2022/12/12 05:00:42;;;;;;;;;;;;;;;18.23;55.79;100197.34;2255137;79;22263;-71
2022/12/12 05:03:48;;;;;;;;;;;;;;;18.26;55.72;100192.45;2225962;78;51520;-71
2022/12/12 05:06:51;;;;;;;;;;;;;;;18.31;55.64;100198.55;2219585;79;51462;-71
2022/12/12 05:09:53;;;;;;;;;;;;;;;18.33;55.58;100199.20;2218906;80;50794;-72
2022/12/12 05:12:58;;;;;;;;;;;;;;;18.30;55.65;100200.92;2237565;79;50413;-71
2022/12/12 05:16:00;;;;;;;;;;;;;;;18.28;55.72;100206.98;2243134;79;50766;-73
2022/12/12 05:19:01;;;;;;;;;;;;;;;18.24;55.78;100203.87;2226314;79;50007;-72
2022/12/12 05:22:03;;;;;;;;;;;;;;;18.19;55.83;100200.93;2170781;79;51846;-71
2022/12/12 05:25:05;;;;;;;;;;;;;;;18.17;55.93;100212.85;2240233;79;53529;-71
2022/12/12 05:28:07;;;;;;;;;;;;;;;18.11;56.30;100214.94;2251883;79;50674;-71
2022/12/12 05:31:08;;;;;;;;;;;;;;;18.09;56.33;100207.63;2255271;79;50314;-70
2022/12/12 05:34:10;;;;;;;;;;;;;;;18.02;56.55;100212.39;2225842;79;50472;-71
2022/12/12 05:37:11;;;;;;;;;;;;;;;18.07;56.53;100206.47;2221387;78;50741;-72
2022/12/12 05:40:13;;;;;;;;;;;;;;;18.14;56.38;100206.03;2218877;80;51426;-72
2022/12/12 05:43:14;;;;;;;;;;;;;;;18.23;56.16;100210.22;2235474;79;50646;-70
2022/12/12 05:46:16;;;;;;;;;;;;;;;18.25;56.00;100204.17;2222597;79;52527;-70
2022/12/12 05:49:18;;;;;;;;;;;;;;;18.23;55.93;100209.41;2248850;79;51545;-70
2022/12/12 05:52:19;;;;;;;;;;;;;;;18.21;55.91;100209.61;2251939;79;51452;-71
2022/12/12 05:55:21;;;;;;;;;;;;;;;18.19;55.90;100202.78;2218778;80;51407;-71
2022/12/12 05:58:22;;;;;;;;;;;;;;;18.16;55.98;100208.50;2186017;79;51191;-70
2022/12/12 06:01:24;;;;;;;;;;;;;;;18.11;56.28;100208.24;2255356;79;52360;-71
2022/12/12 06:04:26;;;;;;;;;;;;;;;18.10;56.38;100209.27;2237473;79;51539;-72
2022/12/12 06:07:27;;;;;;;;;;;;;;;18.06;56.36;100205.64;2223612;79;50163;-71
2022/12/12 06:10:29;;;;;;;;;;;;;;;18.03;56.41;100206.03;2203994;79;50948;-69
2022/12/12 06:13:30;;;;;;;;;;;;;;;18.05;56.34;100209.32;2238169;79;50397;-71
2022/12/12 06:16:32;;;;;;;;;;;;;;;18.07;56.31;100210.48;2218652;79;50237;-71
2022/12/12 06:19:34;;;;;;;;;;;;;;;18.11;56.22;100212.26;2213812;79;50236;-73
2022/12/12 06:22:35;;;;;;;;;;;;;;;18.14;56.17;100211.91;2218786;79;50656;-73
2022/12/12 06:25:37;;;;;;;;;;;;;;;18.18;56.09;100219.86;2237390;79;51381;-73
2022/12/12 06:28:39;;;;;;;;;;;;;;;18.21;56.02;100216.79;2255084;77;51510;-73
2022/12/12 06:31:40;;;;;;;;;;;;;;;18.26;55.99;100229.09;2253162;79;50763;-73
2022/12/12 06:34:42;;;;;;;;;;;;;;;18.28;55.90;100228.41;2226699;79;52341;-73
2022/12/12 06:37:43;;;;;;;;;;;;;;;18.24;55.91;100231.98;2227316;79;51362;-73
2022/12/12 06:40:45;;;;;;;;;;;;;;;18.21;55.96;100233.71;2221843;79;50071;-73
2022/12/12 06:43:47;;;;;;;;;;;;;;;18.18;56.02;100237.27;2243707;79;50105;-74
2022/12/12 06:46:48;;;;;;;;;;;;;;;18.14;56.02;100237.34;2174655;80;51079;-73
2022/12/12 06:49:50;;;;;;;;;;;;;;;18.12;56.08;100240.71;2228951;79;50222;-74
2022/12/12 06:52:51;;;;;;;;;;;;;;;18.08;56.11;100242.09;2228534;79;50131;-73
2022/12/12 06:55:53;;;;;;;;;;;;;;;18.04;56.13;100245.67;2219565;79;50677;-73
2022/12/12 06:58:55;;;;;;;;;;;;;;;18.02;56.22;100247.19;2156687;79;51206;-73
2022/12/12 07:01:56;;;;;;;;;;;;;;;18.03;56.24;100246.19;2219522;80;51539;-74
2022/12/12 07:04:58;;;;;;;;;;;;;;;18.09;56.18;100247.79;2219418;79;51579;-73
2022/12/12 07:08:01;;;;;;;;;;;;;;;18.13;56.13;100252.55;2219513;80;51521;-73
2022/12/12 07:11:04;;;;;;;;;;;;;;;18.12;56.10;100253.58;2194730;80;51770;-73
2022/12/12 07:14:06;;;;;;;;;;;;;;;18.12;56.05;100252.76;2193083;80;51489;-74
2022/12/12 07:17:08;;;;;;;;;;;;;;;18.08;56.09;100248.79;2230869;79;51452;-73
2022/12/12 07:20:09;;;;;;;;;;;;;;;18.05;56.14;100252.67;2219815;80;51527;-73
2022/12/12 07:23:11;;;;;;;;;;;;;;;18.02;56.16;100261.91;2169568;80;50013;-73
2022/12/12 07:26:13;;;;;;;;;;;;;;;18.00;56.20;100263.12;2219840;79;50712;-73
2022/12/12 07:29:15;;;;;;;;;;;;;;;17.96;56.24;100257.84;2229838;79;50439;-73
2022/12/12 07:32:17;;;;;;;;;;;;;;;17.93;56.30;100268.41;2228425;79;50400;-73
2022/12/12 07:35:18;;;;;;;;;;;;;;;17.92;56.36;100265.91;2204884;79;51628;-73
2022/12/12 07:38:20;;;;;;;;;;;;;;;17.94;56.37;100273.25;2201388;80;51446;-73
2022/12/12 07:41:22;;;;;;;;;;;;;;;17.98;56.27;100272.70;2195183;79;50688;-73
2022/12/12 07:44:23;;;;;;;;;;;;;;;18.00;56.20;100269.30;2256419;79;50338;-73
2022/12/12 07:47:25;;;;;;;;;;;;;;;18.04;56.15;100277.80;2172883;79;51227;-73
2022/12/12 07:50:26;;;;;;;;;;;;;;;18.09;56.02;100278.58;2219796;80;50434;-73
2022/12/12 07:53:28;;;;;;;;;;;;;;;18.12;55.94;100281.70;2219649;79;50094;-73
2022/12/12 07:56:30;;;;;;;;;;;;;;;18.15;55.86;100281.31;2221216;79;51610;-73
2022/12/12 07:59:32;;;;;;;;;;;;;;;18.14;55.85;100284.20;2207280;79;51209;-73
2022/12/12 08:02:33;;;;;;;;;;;;;;;18.12;55.88;100295.60;2212401;79;50299;-73
2022/12/12 08:05:36;;;;;;;;;;;;;;;18.09;55.92;100294.64;2212905;79;50396;-72
2022/12/12 08:08:38;;;;;;;;;;;;;;;18.05;55.96;100296.84;2241505;78;50741;-72
2022/12/12 08:11:40;;;;;;;;;;;;;;;18.01;56.00;100295.06;2199022;79;52400;-74
2022/12/12 08:14:41;;;;;;;;;;;;;;;18.00;56.02;100305.95;2200328;79;51424;-73
2022/12/12 08:17:43;;;;;;;;;;;;;;;17.95;56.04;100303.83;2211291;79;51407;-73
2022/12/12 08:20:45;;;;;;;;;;;;;;;17.94;56.09;100306.71;2226968;79;50689;-74
2022/12/12 08:23:46;;;;;;;;;;;;;;;17.91;56.29;100311.93;2220662;79;52569;-76
2022/12/12 08:26:48;;;;;;;;;;;;;;;18.01;55.93;100322.36;2247250;77;50750;-73
2022/12/12 08:29:51;;;;;;;;;;;;;;;18.09;55.51;100314.73;2250116;79;50270;-74
2022/12/12 08:32:53;;;;;;;;;;;;;;;18.17;55.23;100311.93;2227259;79;51561;-73
2022/12/12 08:35:55;;;;;;;;;;;;;;;18.22;54.98;100315.70;2173485;81;52458;-73
2022/12/12 08:38:57;;;;;;;;;;;;;;;18.28;54.94;100319.47;2201729;81;50453;-73
2022/12/12 08:41:59;;;;;;;;;;;;;;;18.33;54.85;100320.24;2231113;79;51522;-73
2022/12/12 08:45:00;;;;;;;;;;;;;;;18.32;54.83;100328.80;2225403;79;51452;-73
2022/12/12 08:48:02;;;;;;;;;;;;;;;18.34;54.75;100325.42;2215873;79;52445;-75
2022/12/12 08:51:04;;;;;;;;;;;;;;;18.27;54.90;100335.22;2227380;79;50742;-73
2022/12/12 08:54:05;;;;;;;;;;;;;;;18.24;54.93;100335.61;2197833;80;50279;-73
2022/12/12 08:57:07;;;;;;;;;;;;;;;18.17;55.06;100340.05;2219282;79;50294;-75
2022/12/12 09:00:09;;;;;;;;;;;;;;;18.11;55.34;100335.42;2151138;81;52490;-74
2022/12/12 09:03:11;;;;;;;;;;;;;;;18.05;55.69;100347.20;2201892;79;50310;-73
2022/12/12 09:06:13;;;;;;;;;;;;;;;17.97;55.91;100349.98;2180085;79;50367;-73
2022/12/12 09:09:14;;;;;;;;;;;;;;;17.97;55.98;100341.95;2222229;79;50532;-72
2022/12/12 09:12:16;;;;;;;;;;;;;;;18.01;56.06;100347.78;2206543;79;50256;-74
2022/12/12 09:15:17;;;;;;;;;;;;;;;18.13;55.84;100350.80;2198249;79;51481;-73
2022/12/12 09:18:19;;;;;;;;;;;;;;;18.17;55.61;100360.95;2215141;79;51467;-73
2022/12/12 09:21:21;;;;;;;;;;;;;;;18.26;55.34;100363.00;2255399;79;51511;-74
2022/12/12 09:24:24;;;;;;;;;;;;;;;18.38;55.03;100367.38;2199985;79;51096;-73
2022/12/12 09:27:25;;;;;;;;;;;;;;;18.37;54.94;100370.58;2228489;79;51550;-73
2022/12/12 09:30:27;;;;;;;;;;;;;;;18.34;54.99;100364.27;2255598;78;51442;-74
2022/12/12 09:33:29;;;;;;;;;;;;;;;18.30;55.16;100371.00;2224265;78;50226;-73
2022/12/12 09:36:30;;;;;;;;;;;;;;;18.26;55.31;100371.04;2191384;80;50856;-73
2022/12/12 09:39:32;;;;;;;;;;;;;;;18.24;55.36;100375.27;2190267;80;50767;-74
2022/12/12 09:42:33;;;;;;;;;;;;;;;18.20;55.32;100367.78;2207499;79;50709;-73
2022/12/12 09:45:35;;;;;;;;;;;;;;;18.18;55.34;100372.48;2237594;79;51435;-73
2022/12/12 09:48:46;;;;;;;;;;;;;;;18.14;55.41;100371.22;2203999;80;51685;-72
2022/12/12 09:51:48;;;;;;;;;;;;;;;18.14;55.40;100373.39;2254136;79;50487;-73
2022/12/12 09:54:50;;;;;;;;;;;;;;;18.17;55.36;100370.84;2245294;79;50796;-73
2022/12/12 09:58:08;;;;;;;;;;;;;;;18.19;55.29;100374.99;2218903;80;51487;-73
2022/12/12 10:01:18;;;;;;;;;;;;;;;18.25;55.24;100368.05;2216199;79;51149;-74
2022/12/12 10:04:27;;;;;;;;;;;;;;;18.26;55.34;100365.69;2219890;79;50302;-74
2022/12/12 10:07:30;;;;;;;;;;;;;;;18.34;55.05;100362.92;2255373;79;50360;-73
2022/12/12 10:10:39;;;;;;;;;;;;;;;18.34;55.02;100374.97;2246177;79;51622;-72
2022/12/12 10:13:41;;;;;;;;;;;;;;;18.31;55.03;100369.14;2223653;79;52730;-73
2022/12/12 10:16:43;;;;;;;;;;;;;;;18.28;55.03;100363.66;2229015;79;51449;-74
2022/12/12 10:19:48;;;;;;;;;;;;;;;18.30;55.01;100368.32;2232708;79;51572;-73
2022/12/12 10:23:07;;;;;;;;;;;;;;;18.19;55.17;100362.94;2235589;79;51451;-73
2022/12/12 10:26:10;;;;;;;;;;;;;;;18.18;55.17;100368.47;2132185;81;51685;-73
2022/12/12 10:29:13;;;;;;;;;;;;;;;18.16;55.23;100371.84;2216971;79;51449;-72
2022/12/12 10:32:19;;;;;;;;;;;;;;;18.20;55.05;100373.14;2231306;79;51482;-72
2022/12/12 10:35:26;;;;;;;;;;;;;;;18.18;55.11;100377.33;2233649;79;51359;-73
2022/12/12 10:38:35;;;;;;;;;;;;;;;18.15;55.14;100376.89;2230821;79;51721;-72
2022/12/12 10:41:38;;;;;;;;;;;;;;;18.19;55.06;100371.48;2236381;79;51639;-72
2022/12/12 10:44:45;;;;;;;;;;;;;;;18.23;54.97;100371.42;2234660;79;55065;-72
2022/12/12 10:47:46;;;;;;;;;;;;;;;18.24;54.96;100369.08;2234201;79;51538;-72
2022/12/12 10:50:52;;;;;;;;;;;;;;;18.32;54.83;100373.50;2208597;79;51162;-73
2022/12/12 10:53:54;;;;;;;;;;;;;;;18.34;54.77;100372.78;2231560;79;50565;-72
2022/12/12 10:57:15;;;;;;;;;;;;;;;18.38;54.62;100373.56;2236093;79;50238;-72
2022/12/12 11:00:17;;;;;;;;;;;;;;;18.36;54.66;100374.25;2218565;79;51449;-72
2022/12/12 11:03:32;;;;;;;;;;;;;;;18.31;54.75;100373.98;2212346;79;52789;-72
2022/12/12 11:06:42;;;;;;;;;;;;;;;18.32;54.75;100377.52;2238880;79;51443;-73
2022/12/12 11:09:46;;;;;;;;;;;;;;;18.28;54.79;100381.06;2235356;79;51656;-71
2022/12/12 11:12:49;;;;;;;;;;;;;;;18.22;54.88;100371.11;2239663;79;51478;-72
2022/12/12 11:15:58;;;;;;;;;;;;;;;18.13;55.05;100365.02;2233072;79;51454;-73
2022/12/12 11:19:04;;;;;;;;;;;;;;;18.14;54.99;100365.35;2221902;79;52491;-72
2022/12/12 11:22:06;;;;;;;;;;;;;;;18.09;55.31;100369.61;2230311;79;51391;-73
2022/12/12 11:25:09;;;;;;;;;;;;;;;18.09;55.56;100377.64;2253974;79;50256;-74
2022/12/12 11:28:12;;;;;;;;;;;;;;;18.08;55.81;100368.76;2195648;79;50080;-72
2022/12/12 11:31:19;;;;;;;;;;;;;;;18.19;56.02;100375.51;2230631;79;51245;-72
2022/12/12 11:34:18;;;;;;;;;;;;;;;18.24;56.10;100369.08;2237905;79;22976;-71
2022/12/12 11:37:24;;;;;;;;;;;;;;;18.32;55.99;100364.95;2208210;79;51529;-71
2022/12/12 11:40:27;;;;;;;;;;;;;;;18.35;55.94;100367.25;2234622;79;51546;-73
2022/12/12 11:43:29;;;;;;;;;;;;;;;18.33;56.11;100369.80;2214594;79;49586;-73
2022/12/12 11:46:30;;;;;;;;;;;;;;;18.32;56.17;100367.62;2231119;79;51555;-71
2022/12/12 11:49:32;;;;;;;;;;;;;;;18.28;56.39;100373.85;2244283;78;50731;-71
2022/12/12 11:52:34;;;;;;;;;;;;;;;18.17;56.85;100370.84;2213107;78;51543;-70
2022/12/12 11:55:46;;;;;;;;;;;;;;;18.11;57.17;100369.75;2208414;79;52863;-72
2022/12/12 11:58:55;;;;;;;;;;;;;;;18.07;57.34;100372.46;2247328;78;51637;-72
2022/12/12 12:02:15;;;;;;;;;;;;;;;18.10;57.37;100376.61;2232464;79;50081;-71
2022/12/12 12:05:24;;;;;;;;;;;;;;;18.11;57.39;100371.09;2220903;79;50686;-72
2022/12/12 12:08:27;;;;;;;;;;;;;;;18.08;57.50;100379.47;2176883;79;51176;-72
2022/12/12 12:11:47;;;;;;;;;;;;;;;18.01;58.20;100383.41;2242210;78;50346;-71
2022/12/12 12:15:02;;;;;;;;;;;;;;;17.97;58.45;100387.47;2243157;79;50335;-72
2022/12/12 12:18:11;;;;;;;;;;;;;;;17.96;58.54;100391.69;2235924;78;49687;-71
2022/12/12 12:21:15;;;;;;;;;;;;;;;17.97;58.66;100393.33;2247126;79;50690;-72
2022/12/12 12:24:18;;;;;;;;;;;;;;;17.99;59.00;100396.15;2244739;79;51510;-72
2022/12/12 12:27:33;;;;;;;;;;;;;;;18.05;59.00;100390.04;2217231;79;51641;-72
2022/12/12 12:30:51;;;;;;;;;;;;;;;17.96;60.01;100395.70;2211808;80;51603;-71
2022/12/12 12:34:13;;;;;;;;;;;;;;;17.97;60.29;100384.78;2211878;79;50465;-72
2022/12/12 12:37:33;;;;;;;;;;;;;;;17.92;60.35;100376.48;2211923;79;50716;-72
2022/12/12 12:40:42;;;;;;;;;;;;;;;17.91;60.39;100380.70;2230849;78;52695;-73
2022/12/12 12:44:01;;;;;;;;;;;;;;;17.91;60.65;100392.23;2227527;79;50330;-72
2022/12/12 12:47:07;;;;;;;;;;;;;;;17.86;60.66;100384.44;2236484;78;52652;-73
2022/12/12 12:50:17;;;;;;;;;;;;;;;17.86;61.29;100393.30;2221942;78;50689;-73
2022/12/12 12:53:20;;;;;;;;;;;;;;;17.85;61.22;100384.92;2232342;79;50325;-74
2022/12/12 12:56:22;;;;;;;;;;;;;;;17.88;60.91;100387.73;2212276;79;50369;-73
2022/12/12 12:59:25;;;;;;;;;;;;;;;17.84;61.13;100380.08;2218863;79;52423;-74
2022/12/12 13:02:38;;;;;;;;;;;;;;;17.90;61.10;100383.03;2247940;79;51574;-74
2022/12/12 13:05:41;;;;;;;;;;;;;;;17.91;60.96;100390.06;2212288;80;50469;-73
2022/12/12 13:09:00;;;;;;;;;;;;;;;17.94;60.90;100377.13;2226828;78;51552;-74
2022/12/12 13:12:03;;;;;;;;;;;;;;;17.95;60.73;100380.13;2218520;79;52579;-73
2022/12/12 13:15:06;;;;;;;;;;;;;;;17.94;60.63;100374.45;2247957;79;51603;-73
2022/12/12 13:18:15;;;;;;;;;;;;;;;17.92;60.76;100380.50;2235054;78;51497;-73
2022/12/12 13:21:21;;;;;;;;;;;;;;;17.89;61.13;100383.55;2227626;79;50750;-72
2022/12/12 13:24:25;;;;;;;;;;;;;;;17.87;61.30;100379.39;2243492;79;51543;-74
2022/12/12 13:27:28;;;;;;;;;;;;;;;17.84;61.50;100379.26;2248678;78;51456;-74
2022/12/12 13:30:43;;;;;;;;;;;;;;;17.85;61.66;100384.92;2246942;79;52415;-73
2022/12/12 13:33:47;;;;;;;;;;;;;;;17.86;61.63;100388.45;2237044;79;50493;-73
2022/12/12 13:36:49;;;;;;;;;;;;;;;17.83;62.07;100386.98;2206997;79;49685;-76
2022/12/12 13:40:00;;;;;;;;;;;;;;;17.83;61.63;100388.31;2218146;79;51755;-73
2022/12/12 13:43:03;;;;;;;;;;;;;;;17.90;61.43;100393.73;2221311;79;50749;-73
2022/12/12 13:46:27;;;;;;;;;;;;;;;17.95;61.09;100396.19;2212226;79;50336;-73
2022/12/12 13:49:33;;;;;;;;;;;;;;;17.98;60.85;100397.17;2185394;80;51829;-73
2022/12/12 13:52:37;;;;;;;;;;;;;;;18.04;60.70;100395.59;2211011;80;51536;-72
2022/12/12 13:55:38;;;;;;;;;;;;;;;18.06;60.37;100402.43;2220450;79;51567;-72
2022/12/12 13:58:40;;;;;;;;;;;;;;;18.09;60.34;100408.44;2247987;79;50458;-72
2022/12/12 14:01:41;;;;;;;;;;;;;;;18.06;60.33;100406.45;2201829;79;51241;-72
2022/12/12 14:04:43;;;;;;;;;;;;;;;18.05;60.42;100403.94;2212405;79;50220;-72
2022/12/12 14:07:48;;;;;;;;;;;;;;;18.06;60.51;100405.11;2211493;80;50333;-72
2022/12/12 14:11:03;;;;;;;;;;;;;;;18.05;60.84;100403.42;2230805;78;51483;-72
2022/12/12 14:14:06;;;;;;;;;;;;;;;18.03;60.87;100408.64;2226979;79;51240;-73
2022/12/12 14:17:09;;;;;;;;;;;;;;;18.01;60.67;100410.70;2211922;80;50498;-73
2022/12/12 14:20:12;;;;;;;;;;;;;;;17.98;60.81;100415.91;2229204;79;50398;-73
2022/12/12 14:23:22;;;;;;;;;;;;;;;17.97;60.61;100419.59;2245588;79;50456;-73
2022/12/12 14:26:28;;;;;;;;;;;;;;;18.06;60.22;100415.81;2234540;79;50381;-73
2022/12/12 14:29:31;;;;;;;;;;;;;;;18.10;59.86;100413.59;2211640;80;51462;-73
2022/12/12 14:32:34;;;;;;;;;;;;;;;18.17;59.65;100411.01;2211488;80;50228;-73
2022/12/12 14:35:54;;;;;;;;;;;;;;;18.25;59.40;100414.92;2234188;79;49594;-73
2022/12/12 14:39:07;;;;;;;;;;;;;;;18.30;59.25;100430.44;2215951;79;51350;-72
2022/12/12 14:42:10;;;;;;;;;;;;;;;18.28;59.15;100429.27;2235895;79;51505;-73
2022/12/12 14:45:25;;;;;;;;;;;;;;;18.27;59.08;100427.63;2211945;79;52538;-73
2022/12/12 14:48:28;;;;;;;;;;;;;;;18.23;59.08;100429.00;2211192;80;51598;-73
2022/12/12 14:51:31;;;;;;;;;;;;;;;18.18;59.13;100428.73;2184711;80;51777;-73
2022/12/12 14:54:32;;;;;;;;;;;;;;;18.12;59.26;100430.30;2218001;79;51500;-74
2022/12/12 14:57:34;;;;;;;;;;;;;;;18.07;59.43;100436.72;2247865;79;50347;-74
2022/12/12 15:00:35;;;;;;;;;;;;;;;18.01;59.76;100436.95;2230937;79;50406;-75
2022/12/12 15:03:47;;;;;;;;;;;;;;;17.98;59.75;100443.17;2182949;80;50378;-74
2022/12/12 15:06:53;;;;;;;;;;;;;;;18.00;59.71;100441.97;2244145;79;50281;-74
2022/12/12 15:09:54;;;;;;;;;;;;;;;18.01;59.56;100446.33;2243610;79;50721;-74
2022/12/12 15:12:56;;;;;;;;;;;;;;;18.04;59.31;100453.98;2194567;80;50542;-74
2022/12/12 15:15:58;;;;;;;;;;;;;;;18.08;59.12;100449.59;2231849;79;51389;-74
2022/12/12 15:18:59;;;;;;;;;;;;;;;18.11;58.85;100452.75;2247859;79;52235;-74
2022/12/12 15:22:01;;;;;;;;;;;;;;;18.19;58.56;100459.86;2217669;79;51390;-74
2022/12/12 15:25:04;;;;;;;;;;;;;;;18.19;58.42;100457.19;2218486;79;50274;-74
2022/12/12 15:28:05;;;;;;;;;;;;;;;18.26;58.23;100456.74;2212323;78;52593;-74
2022/12/12 15:31:08;;;;;;;;;;;;;;;18.31;58.00;100461.03;2238502;79;50749;-74
2022/12/12 15:34:28;;;;;;;;;;;;;;;18.36;57.78;100454.61;2248124;79;51461;-73
2022/12/12 15:37:33;;;;;;;;;;;;;;;18.35;57.67;100455.64;2200929;79;51418;-74
2022/12/12 15:40:35;;;;;;;;;;;;;;;18.30;57.71;100455.37;2197136;79;51161;-73
2022/12/12 15:43:37;;;;;;;;;;;;;;;18.25;58.03;100447.88;2232411;79;51653;-73
2022/12/12 15:46:39;;;;;;;;;;;;;;;18.20;58.28;100446.78;2217831;79;51580;-72
2022/12/12 15:49:41;;;;;;;;;;;;;;;18.15;58.60;100449.19;2220737;79;51461;-72
2022/12/12 15:52:43;;;;;;;;;;;;;;;18.10;58.87;100460.95;2175609;80;50071;-75
2022/12/12 15:55:55;;;;;;;;;;;;;;;18.05;59.18;100453.47;2211622;80;50738;-74